sensor_id;sensor_type;location;lat;lon;timestamp;temperature;humidity
23137;DHT22;11737;50.558;7.258;2023-03-23T00:02:28;15.10;99.90
23137;DHT22;11737;50.558;7.258;2023-03-23T00:04:56;15.10;99.90
23137;DHT22;11737;50.558;7.258;2023-03-23T00:07:23;15.20;99.90
23137;DHT22;11737;50.558;7.258;2023-03-23T00:09:54;15.20;99.90
23137;DHT22;11737;50.558;7.258;2023-03-23T00:12:24;15.20;99.90
23137;DHT22;11737;50.558;7.258;2023-03-23T00:15:05;15.20;99.90
23137;DHT22;11737;50.558;7.258;2023-03-23T00:17:35;15.20;99.90
23137;DHT22;11737;50.558;7.258;2023-03-23T00:20:03;15.20;99.90
23137;DHT22;11737;50.558;7.258;2023-03-23T00:22:37;15.10;99.90
23137;DHT22;11737;50.558;7.258;2023-03-23T00:25:06;15.20;99.90
23137;DHT22;11737;50.558;7.258;2023-03-23T00:27:34;15.20;99.90
23137;DHT22;11737;50.558;7.258;2023-03-23T00:30:02;15.10;99.90
23137;DHT22;11737;50.558;7.258;2023-03-23T00:32:30;15.10;99.90
23137;DHT22;11737;50.558;7.258;2023-03-23T00:34:58;15.10;99.90
23137;DHT22;11737;50.558;7.258;2023-03-23T00:37:26;15.10;99.90
23137;DHT22;11737;50.558;7.258;2023-03-23T00:39:54;15.10;99.90
23137;DHT22;11737;50.558;7.258;2023-03-23T00:42:23;15.10;99.90
23137;DHT22;11737;50.558;7.258;2023-03-23T00:44:51;15.10;99.90
23137;DHT22;11737;50.558;7.258;2023-03-23T00:47:20;15.10;99.90
23137;DHT22;11737;50.558;7.258;2023-03-23T00:49:49;15.10;99.90
23137;DHT22;11737;50.558;7.258;2023-03-23T00:52:18;15.10;99.90
23137;DHT22;11737;50.558;7.258;2023-03-23T00:54:45;15.10;99.90
23137;DHT22;11737;50.558;7.258;2023-03-23T00:57:13;15.00;99.90
23137;DHT22;11737;50.558;7.258;2023-03-23T00:59:40;15.10;99.90
23137;DHT22;11737;50.558;7.258;2023-03-23T01:02:08;15.10;99.90
23137;DHT22;11737;50.558;7.258;2023-03-23T01:04:40;15.10;99.90
23137;DHT22;11737;50.558;7.258;2023-03-23T01:07:09;15.10;99.90
23137;DHT22;11737;50.558;7.258;2023-03-23T01:09:39;15.10;99.90
23137;DHT22;11737;50.558;7.258;2023-03-23T01:12:11;15.10;99.90
23137;DHT22;11737;50.558;7.258;2023-03-23T01:14:39;15.10;99.90
23137;DHT22;11737;50.558;7.258;2023-03-23T01:17:08;15.00;99.90
23137;DHT22;11737;50.558;7.258;2023-03-23T01:19:35;15.00;99.90
23137;DHT22;11737;50.558;7.258;2023-03-23T01:22:04;14.90;99.90
23137;DHT22;11737;50.558;7.258;2023-03-23T01:24:31;14.90;99.90
23137;DHT22;11737;50.558;7.258;2023-03-23T01:26:59;14.80;99.90
23137;DHT22;11737;50.558;7.258;2023-03-23T01:29:28;14.70;99.90
23137;DHT22;11737;50.558;7.258;2023-03-23T01:31:56;14.60;99.90
23137;DHT22;11737;50.558;7.258;2023-03-23T01:34:23;14.60;99.90
23137;DHT22;11737;50.558;7.258;2023-03-23T01:36:51;14.50;99.90
23137;DHT22;11737;50.558;7.258;2023-03-23T01:39:19;14.50;99.90
23137;DHT22;11737;50.558;7.258;2023-03-23T01:41:47;14.40;99.90
23137;DHT22;11737;50.558;7.258;2023-03-23T01:47:07;14.40;99.90
23137;DHT22;11737;50.558;7.258;2023-03-23T01:49:37;14.40;99.90
23137;DHT22;11737;50.558;7.258;2023-03-23T01:52:11;14.50;99.90
23137;DHT22;11737;50.558;7.258;2023-03-23T01:54:40;14.50;99.90
23137;DHT22;11737;50.558;7.258;2023-03-23T02:00:00;14.50;99.90
23137;DHT22;11737;50.558;7.258;2023-03-23T02:02:30;14.40;99.90
23137;DHT22;11737;50.558;7.258;2023-03-23T02:05:02;14.40;99.90
23137;DHT22;11737;50.558;7.258;2023-03-23T02:07:29;14.40;99.90
23137;DHT22;11737;50.558;7.258;2023-03-23T02:09:58;14.40;99.90
23137;DHT22;11737;50.558;7.258;2023-03-23T02:12:26;14.40;99.90
23137;DHT22;11737;50.558;7.258;2023-03-23T02:14:54;14.50;99.90
23137;DHT22;11737;50.558;7.258;2023-03-23T02:17:36;14.50;99.90
23137;DHT22;11737;50.558;7.258;2023-03-23T02:25:54;14.40;99.90
23137;DHT22;11737;50.558;7.258;2023-03-23T02:28:43;14.40;99.90
23137;DHT22;11737;50.558;7.258;2023-03-23T02:31:29;14.40;99.90
23137;DHT22;11737;50.558;7.258;2023-03-23T02:34:00;14.30;99.90
23137;DHT22;11737;50.558;7.258;2023-03-23T02:39:08;14.30;99.90
23137;DHT22;11737;50.558;7.258;2023-03-23T02:41:34;14.20;99.90
23137;DHT22;11737;50.558;7.258;2023-03-23T02:44:02;14.20;99.90
23137;DHT22;11737;50.558;7.258;2023-03-23T02:46:32;14.00;99.90
23137;DHT22;11737;50.558;7.258;2023-03-23T02:49:01;14.00;99.90
23137;DHT22;11737;50.558;7.258;2023-03-23T02:51:31;14.00;99.90
23137;DHT22;11737;50.558;7.258;2023-03-23T02:54:00;14.00;99.90
23137;DHT22;11737;50.558;7.258;2023-03-23T02:56:30;14.00;99.90
23137;DHT22;11737;50.558;7.258;2023-03-23T02:58:59;14.00;99.90
23137;DHT22;11737;50.558;7.258;2023-03-23T03:04:03;14.00;99.90
23137;DHT22;11737;50.558;7.258;2023-03-23T03:15:27;13.80;99.90
23137;DHT22;11737;50.558;7.258;2023-03-23T03:18:15;13.80;99.90
23137;DHT22;11737;50.558;7.258;2023-03-23T03:20:48;13.90;99.90
23137;DHT22;11737;50.558;7.258;2023-03-23T03:23:16;13.90;99.90
23137;DHT22;11737;50.558;7.258;2023-03-23T03:25:45;13.90;99.90
23137;DHT22;11737;50.558;7.258;2023-03-23T03:28:18;13.90;99.90
23137;DHT22;11737;50.558;7.258;2023-03-23T03:30:51;13.90;99.90
23137;DHT22;11737;50.558;7.258;2023-03-23T03:33:18;13.90;99.90
23137;DHT22;11737;50.558;7.258;2023-03-23T03:35:47;13.90;99.90
23137;DHT22;11737;50.558;7.258;2023-03-23T03:38:16;13.90;99.90
23137;DHT22;11737;50.558;7.258;2023-03-23T03:40:44;13.90;99.90
23137;DHT22;11737;50.558;7.258;2023-03-23T03:43:12;13.80;99.90
23137;DHT22;11737;50.558;7.258;2023-03-23T03:45:39;13.80;99.90
23137;DHT22;11737;50.558;7.258;2023-03-23T03:48:08;13.80;99.90
23137;DHT22;11737;50.558;7.258;2023-03-23T03:50:36;13.80;99.90
23137;DHT22;11737;50.558;7.258;2023-03-23T03:53:05;13.80;99.90
23137;DHT22;11737;50.558;7.258;2023-03-23T03:55:33;13.80;99.90
23137;DHT22;11737;50.558;7.258;2023-03-23T03:58:04;13.80;99.90
23137;DHT22;11737;50.558;7.258;2023-03-23T04:00:34;13.80;99.90
23137;DHT22;11737;50.558;7.258;2023-03-23T04:03:01;13.80;99.90
23137;DHT22;11737;50.558;7.258;2023-03-23T04:05:29;13.80;99.90
23137;DHT22;11737;50.558;7.258;2023-03-23T04:07:57;13.80;99.90
23137;DHT22;11737;50.558;7.258;2023-03-23T04:10:26;13.80;99.90
23137;DHT22;11737;50.558;7.258;2023-03-23T04:12:56;13.80;99.90
23137;DHT22;11737;50.558;7.258;2023-03-23T04:15:24;13.70;99.90
23137;DHT22;11737;50.558;7.258;2023-03-23T04:17:52;13.70;99.90
23137;DHT22;11737;50.558;7.258;2023-03-23T04:20:19;13.70;99.90
23137;DHT22;11737;50.558;7.258;2023-03-23T04:22:50;13.80;99.90
23137;DHT22;11737;50.558;7.258;2023-03-23T04:25:19;13.80;99.90
23137;DHT22;11737;50.558;7.258;2023-03-23T04:27:48;13.80;99.90
23137;DHT22;11737;50.558;7.258;2023-03-23T04:30:21;13.80;99.90
23137;DHT22;11737;50.558;7.258;2023-03-23T04:32:50;13.80;99.90
23137;DHT22;11737;50.558;7.258;2023-03-23T04:35:19;13.80;99.90
23137;DHT22;11737;50.558;7.258;2023-03-23T04:37:48;13.80;99.90
23137;DHT22;11737;50.558;7.258;2023-03-23T04:40:17;13.80;99.90
23137;DHT22;11737;50.558;7.258;2023-03-23T04:42:45;13.80;99.90
23137;DHT22;11737;50.558;7.258;2023-03-23T04:45:15;13.80;99.90
23137;DHT22;11737;50.558;7.258;2023-03-23T04:47:44;13.70;99.90
23137;DHT22;11737;50.558;7.258;2023-03-23T04:50:13;13.70;99.90
23137;DHT22;11737;50.558;7.258;2023-03-23T04:52:41;13.70;99.90
23137;DHT22;11737;50.558;7.258;2023-03-23T04:55:11;13.70;99.90
23137;DHT22;11737;50.558;7.258;2023-03-23T04:57:40;13.70;99.90
23137;DHT22;11737;50.558;7.258;2023-03-23T05:00:08;13.70;99.90
23137;DHT22;11737;50.558;7.258;2023-03-23T05:02:38;13.70;99.90
23137;DHT22;11737;50.558;7.258;2023-03-23T05:05:10;13.70;99.90
23137;DHT22;11737;50.558;7.258;2023-03-23T05:07:39;13.70;99.90
23137;DHT22;11737;50.558;7.258;2023-03-23T05:10:08;13.70;99.90
23137;DHT22;11737;50.558;7.258;2023-03-23T05:12:37;13.70;99.90
23137;DHT22;11737;50.558;7.258;2023-03-23T05:15:06;13.60;99.90
23137;DHT22;11737;50.558;7.258;2023-03-23T05:17:34;13.50;99.90
23137;DHT22;11737;50.558;7.258;2023-03-23T05:20:04;13.50;99.90
23137;DHT22;11737;50.558;7.258;2023-03-23T05:22:33;13.50;99.90
23137;DHT22;11737;50.558;7.258;2023-03-23T05:25:01;13.60;99.90
23137;DHT22;11737;50.558;7.258;2023-03-23T05:27:31;13.60;99.90
23137;DHT22;11737;50.558;7.258;2023-03-23T05:29:59;13.50;99.90
23137;DHT22;11737;50.558;7.258;2023-03-23T05:32:28;13.40;99.90
23137;DHT22;11737;50.558;7.258;2023-03-23T05:34:58;13.40;99.90
23137;DHT22;11737;50.558;7.258;2023-03-23T05:37:28;13.40;99.90
23137;DHT22;11737;50.558;7.258;2023-03-23T05:39:58;13.40;99.90
23137;DHT22;11737;50.558;7.258;2023-03-23T05:42:28;13.40;99.90
23137;DHT22;11737;50.558;7.258;2023-03-23T05:44:55;13.30;99.90
23137;DHT22;11737;50.558;7.258;2023-03-23T05:47:23;13.30;99.90
23137;DHT22;11737;50.558;7.258;2023-03-23T05:49:52;13.30;99.90
23137;DHT22;11737;50.558;7.258;2023-03-23T05:52:20;13.20;99.90
23137;DHT22;11737;50.558;7.258;2023-03-23T05:54:47;13.30;99.90
23137;DHT22;11737;50.558;7.258;2023-03-23T05:57:15;13.30;99.90
23137;DHT22;11737;50.558;7.258;2023-03-23T05:59:44;13.30;99.90
23137;DHT22;11737;50.558;7.258;2023-03-23T06:02:12;13.40;99.90
23137;DHT22;11737;50.558;7.258;2023-03-23T06:04:41;13.40;99.90
23137;DHT22;11737;50.558;7.258;2023-03-23T06:07:09;13.40;99.90
23137;DHT22;11737;50.558;7.258;2023-03-23T06:09:39;13.50;99.90
23137;DHT22;11737;50.558;7.258;2023-03-23T06:12:08;13.50;99.90
23137;DHT22;11737;50.558;7.258;2023-03-23T06:14:37;13.50;99.90
23137;DHT22;11737;50.558;7.258;2023-03-23T06:17:05;13.50;99.90
23137;DHT22;11737;50.558;7.258;2023-03-23T06:19:34;13.50;99.90
23137;DHT22;11737;50.558;7.258;2023-03-23T06:22:02;13.50;99.90
23137;DHT22;11737;50.558;7.258;2023-03-23T06:24:31;13.50;99.90
23137;DHT22;11737;50.558;7.258;2023-03-23T06:26:59;13.60;99.90
23137;DHT22;11737;50.558;7.258;2023-03-23T06:29:27;13.60;99.90
23137;DHT22;11737;50.558;7.258;2023-03-23T06:31:58;13.60;99.90
23137;DHT22;11737;50.558;7.258;2023-03-23T06:34:26;13.50;99.90
23137;DHT22;11737;50.558;7.258;2023-03-23T06:36:54;13.50;99.90
23137;DHT22;11737;50.558;7.258;2023-03-23T06:39:22;13.50;99.90
23137;DHT22;11737;50.558;7.258;2023-03-23T06:41:50;13.40;99.90
23137;DHT22;11737;50.558;7.258;2023-03-23T06:44:18;13.50;99.90
23137;DHT22;11737;50.558;7.258;2023-03-23T06:46:45;13.50;99.90
23137;DHT22;11737;50.558;7.258;2023-03-23T06:49:14;13.60;99.90
23137;DHT22;11737;50.558;7.258;2023-03-23T06:51:42;13.60;99.90
23137;DHT22;11737;50.558;7.258;2023-03-23T06:54:10;13.60;99.90
23137;DHT22;11737;50.558;7.258;2023-03-23T06:56:37;13.70;99.90
23137;DHT22;11737;50.558;7.258;2023-03-23T06:59:05;13.80;99.90
23137;DHT22;11737;50.558;7.258;2023-03-23T07:01:36;13.80;99.90
23137;DHT22;11737;50.558;7.258;2023-03-23T07:04:04;13.90;99.90
23137;DHT22;11737;50.558;7.258;2023-03-23T07:06:32;13.90;99.90
23137;DHT22;11737;50.558;7.258;2023-03-23T07:09:00;14.00;99.90
23137;DHT22;11737;50.558;7.258;2023-03-23T07:11:27;14.00;99.90
23137;DHT22;11737;50.558;7.258;2023-03-23T07:13:55;14.00;99.90
23137;DHT22;11737;50.558;7.258;2023-03-23T07:16:23;14.10;99.90
23137;DHT22;11737;50.558;7.258;2023-03-23T07:18:50;14.20;99.90
23137;DHT22;11737;50.558;7.258;2023-03-23T07:21:18;14.10;99.90
23137;DHT22;11737;50.558;7.258;2023-03-23T07:23:45;14.10;99.90
23137;DHT22;11737;50.558;7.258;2023-03-23T07:26:13;14.20;99.90
23137;DHT22;11737;50.558;7.258;2023-03-23T07:28:41;14.20;99.90
23137;DHT22;11737;50.558;7.258;2023-03-23T07:31:08;14.20;99.90
23137;DHT22;11737;50.558;7.258;2023-03-23T07:33:36;14.30;99.90
23137;DHT22;11737;50.558;7.258;2023-03-23T07:36:04;14.40;99.90
23137;DHT22;11737;50.558;7.258;2023-03-23T07:38:32;14.50;99.90
23137;DHT22;11737;50.558;7.258;2023-03-23T07:41:00;14.60;99.90
23137;DHT22;11737;50.558;7.258;2023-03-23T07:43:28;14.60;99.90
23137;DHT22;11737;50.558;7.258;2023-03-23T07:45:55;14.70;99.90
23137;DHT22;11737;50.558;7.258;2023-03-23T07:48:23;14.80;99.90
23137;DHT22;11737;50.558;7.258;2023-03-23T07:50:50;14.80;99.90
23137;DHT22;11737;50.558;7.258;2023-03-23T07:53:18;14.90;99.90
23137;DHT22;11737;50.558;7.258;2023-03-23T07:55:47;15.00;99.90
23137;DHT22;11737;50.558;7.258;2023-03-23T07:58:15;15.00;99.90
23137;DHT22;11737;50.558;7.258;2023-03-23T08:00:45;15.00;99.90
23137;DHT22;11737;50.558;7.258;2023-03-23T08:03:12;15.00;99.90
23137;DHT22;11737;50.558;7.258;2023-03-23T08:05:41;15.10;99.90
23137;DHT22;11737;50.558;7.258;2023-03-23T08:08:09;15.20;99.90
23137;DHT22;11737;50.558;7.258;2023-03-23T08:10:37;15.20;99.90
23137;DHT22;11737;50.558;7.258;2023-03-23T08:13:05;15.20;99.90
23137;DHT22;11737;50.558;7.258;2023-03-23T08:15:33;15.30;99.90
23137;DHT22;11737;50.558;7.258;2023-03-23T08:18:02;15.30;99.90
23137;DHT22;11737;50.558;7.258;2023-03-23T08:20:29;15.30;99.90
23137;DHT22;11737;50.558;7.258;2023-03-23T08:22:58;15.30;99.90
23137;DHT22;11737;50.558;7.258;2023-03-23T08:25:26;15.30;99.90
23137;DHT22;11737;50.558;7.258;2023-03-23T08:27:54;15.40;99.90
23137;DHT22;11737;50.558;7.258;2023-03-23T08:30:23;15.40;99.90
23137;DHT22;11737;50.558;7.258;2023-03-23T08:32:52;15.40;99.90
23137;DHT22;11737;50.558;7.258;2023-03-23T08:35:20;15.40;99.90
23137;DHT22;11737;50.558;7.258;2023-03-23T08:37:47;15.40;99.90
23137;DHT22;11737;50.558;7.258;2023-03-23T08:40:21;15.50;99.90
23137;DHT22;11737;50.558;7.258;2023-03-23T08:42:50;15.50;99.90
23137;DHT22;11737;50.558;7.258;2023-03-23T08:45:21;15.50;99.90
23137;DHT22;11737;50.558;7.258;2023-03-23T08:47:49;15.60;99.90
23137;DHT22;11737;50.558;7.258;2023-03-23T08:50:22;15.60;99.90
23137;DHT22;11737;50.558;7.258;2023-03-23T08:52:51;15.70;99.90
23137;DHT22;11737;50.558;7.258;2023-03-23T08:55:20;15.80;99.90
23137;DHT22;11737;50.558;7.258;2023-03-23T08:57:48;15.80;99.90
23137;DHT22;11737;50.558;7.258;2023-03-23T09:00:18;15.80;99.90
23137;DHT22;11737;50.558;7.258;2023-03-23T09:02:47;15.80;99.90
23137;DHT22;11737;50.558;7.258;2023-03-23T09:05:17;15.90;99.90
23137;DHT22;11737;50.558;7.258;2023-03-23T09:07:48;15.90;99.90
23137;DHT22;11737;50.558;7.258;2023-03-23T09:10:17;15.90;99.90
23137;DHT22;11737;50.558;7.258;2023-03-23T09:12:46;16.00;99.90
23137;DHT22;11737;50.558;7.258;2023-03-23T09:15:15;16.00;99.90
23137;DHT22;11737;50.558;7.258;2023-03-23T09:17:47;16.10;99.90
23137;DHT22;11737;50.558;7.258;2023-03-23T09:20:18;16.10;99.90
23137;DHT22;11737;50.558;7.258;2023-03-23T09:22:49;16.20;99.90
23137;DHT22;11737;50.558;7.258;2023-03-23T09:25:19;16.30;99.90
23137;DHT22;11737;50.558;7.258;2023-03-23T09:27:57;16.30;99.90
23137;DHT22;11737;50.558;7.258;2023-03-23T09:30:28;16.40;99.90
23137;DHT22;11737;50.558;7.258;2023-03-23T09:32:57;16.40;99.90
23137;DHT22;11737;50.558;7.258;2023-03-23T09:35:26;16.50;99.90
23137;DHT22;11737;50.558;7.258;2023-03-23T09:37:54;16.50;99.90
23137;DHT22;11737;50.558;7.258;2023-03-23T09:40:24;16.50;99.90
23137;DHT22;11737;50.558;7.258;2023-03-23T09:48:45;16.70;99.90
23137;DHT22;11737;50.558;7.258;2023-03-23T09:51:40;16.70;99.90
23137;DHT22;11737;50.558;7.258;2023-03-23T09:54:19;16.70;99.90
23137;DHT22;11737;50.558;7.258;2023-03-23T09:56:47;16.70;99.90
23137;DHT22;11737;50.558;7.258;2023-03-23T09:59:38;16.80;99.90
23137;DHT22;11737;50.558;7.258;2023-03-23T10:03:06;16.90;99.90
23137;DHT22;11737;50.558;7.258;2023-03-23T10:07:55;17.20;99.90
23137;DHT22;11737;50.558;7.258;2023-03-23T10:10:26;17.50;99.90
23137;DHT22;11737;50.558;7.258;2023-03-23T10:13:16;17.80;99.90
23137;DHT22;11737;50.558;7.258;2023-03-23T10:15:44;17.80;99.90
23137;DHT22;11737;50.558;7.258;2023-03-23T10:18:27;17.80;99.90
23137;DHT22;11737;50.558;7.258;2023-03-23T10:20:58;17.80;99.90
23137;DHT22;11737;50.558;7.258;2023-03-23T10:26:29;17.50;99.90
23137;DHT22;11737;50.558;7.258;2023-03-23T10:31:58;17.40;99.90
23137;DHT22;11737;50.558;7.258;2023-03-23T10:35:29;17.30;99.90
23137;DHT22;11737;50.558;7.258;2023-03-23T10:37:22;17.20;99.90
23137;DHT22;11737;50.558;7.258;2023-03-23T10:39:55;17.20;99.90
23137;DHT22;11737;50.558;7.258;2023-03-23T10:42:33;17.10;99.90
23137;DHT22;11737;50.558;7.258;2023-03-23T10:47:43;17.10;99.90
23137;DHT22;11737;50.558;7.258;2023-03-23T10:50:13;17.20;99.90
23137;DHT22;11737;50.558;7.258;2023-03-23T10:52:43;17.20;99.90
23137;DHT22;11737;50.558;7.258;2023-03-23T10:55:19;17.20;99.90
23137;DHT22;11737;50.558;7.258;2023-03-23T10:58:12;17.20;99.90
23137;DHT22;11737;50.558;7.258;2023-03-23T11:00:31;17.20;99.90
23137;DHT22;11737;50.558;7.258;2023-03-23T11:03:02;17.20;99.90
23137;DHT22;11737;50.558;7.258;2023-03-23T11:05:40;17.30;99.90
23137;DHT22;11737;50.558;7.258;2023-03-23T11:08:19;17.30;99.90
23137;DHT22;11737;50.558;7.258;2023-03-23T11:10:52;17.30;99.90
23137;DHT22;11737;50.558;7.258;2023-03-23T11:13:23;17.40;99.90
23137;DHT22;11737;50.558;7.258;2023-03-23T11:15:51;17.50;99.90
23137;DHT22;11737;50.558;7.258;2023-03-23T11:18:21;17.50;99.90
23137;DHT22;11737;50.558;7.258;2023-03-23T11:20:52;17.50;99.90
23137;DHT22;11737;50.558;7.258;2023-03-23T11:25:57;17.70;99.90
23137;DHT22;11737;50.558;7.258;2023-03-23T11:28:34;17.90;99.90
23137;DHT22;11737;50.558;7.258;2023-03-23T11:31:03;17.90;99.90
23137;DHT22;11737;50.558;7.258;2023-03-23T11:33:50;17.90;99.90
23137;DHT22;11737;50.558;7.258;2023-03-23T11:36:14;17.90;99.90
23137;DHT22;11737;50.558;7.258;2023-03-23T11:38:43;17.90;99.90
23137;DHT22;11737;50.558;7.258;2023-03-23T11:41:16;18.00;99.90
23137;DHT22;11737;50.558;7.258;2023-03-23T11:43:44;18.00;99.90
23137;DHT22;11737;50.558;7.258;2023-03-23T11:49:05;18.10;99.90
23137;DHT22;11737;50.558;7.258;2023-03-23T11:54:37;18.20;99.90
23137;DHT22;11737;50.558;7.258;2023-03-23T11:57:11;18.20;99.90
23137;DHT22;11737;50.558;7.258;2023-03-23T11:59:40;18.30;99.90
23137;DHT22;11737;50.558;7.258;2023-03-23T12:08:04;18.70;99.90
23137;DHT22;11737;50.558;7.258;2023-03-23T12:13:46;19.00;99.90
23137;DHT22;11737;50.558;7.258;2023-03-23T12:16:32;19.20;99.90
23137;DHT22;11737;50.558;7.258;2023-03-23T12:19:29;19.30;99.90
23137;DHT22;11737;50.558;7.258;2023-03-23T12:25:32;19.60;99.90
23137;DHT22;11737;50.558;7.258;2023-03-23T12:33:42;19.80;99.90
23137;DHT22;11737;50.558;7.258;2023-03-23T12:36:31;19.70;99.80
23137;DHT22;11737;50.558;7.258;2023-03-23T12:39:08;19.60;99.90
23137;DHT22;11737;50.558;7.258;2023-03-23T12:44:10;19.50;99.90
23137;DHT22;11737;50.558;7.258;2023-03-23T12:46:50;19.50;99.90
23137;DHT22;11737;50.558;7.258;2023-03-23T12:49:27;19.30;99.70
23137;DHT22;11737;50.558;7.258;2023-03-23T12:52:21;19.20;99.80
23137;DHT22;11737;50.558;7.258;2023-03-23T13:00:50;19.00;99.90
23137;DHT22;11737;50.558;7.258;2023-03-23T13:03:40;19.00;99.90
23137;DHT22;11737;50.558;7.258;2023-03-23T13:06:23;19.00;99.90
23137;DHT22;11737;50.558;7.258;2023-03-23T13:11:42;18.90;99.90
23137;DHT22;11737;50.558;7.258;2023-03-23T13:17:20;18.70;99.80
23137;DHT22;11737;50.558;7.258;2023-03-23T13:20:13;18.60;99.90
23137;DHT22;11737;50.558;7.258;2023-03-23T13:22:39;18.60;99.90
23137;DHT22;11737;50.558;7.258;2023-03-23T13:25:18;18.60;99.90
23137;DHT22;11737;50.558;7.258;2023-03-23T13:27:40;18.60;99.90
23137;DHT22;11737;50.558;7.258;2023-03-23T13:33:34;18.80;99.90
23137;DHT22;11737;50.558;7.258;2023-03-23T13:36:13;18.90;99.90
23137;DHT22;11737;50.558;7.258;2023-03-23T13:38:38;18.80;99.90
23137;DHT22;11737;50.558;7.258;2023-03-23T13:41:11;18.80;99.90
23137;DHT22;11737;50.558;7.258;2023-03-23T13:43:41;18.80;99.90
23137;DHT22;11737;50.558;7.258;2023-03-23T13:46:27;18.80;99.90
23137;DHT22;11737;50.558;7.258;2023-03-23T13:54:19;18.70;99.70
23137;DHT22;11737;50.558;7.258;2023-03-23T13:56:52;18.60;99.90
23137;DHT22;11737;50.558;7.258;2023-03-23T13:59:31;18.60;99.90
23137;DHT22;11737;50.558;7.258;2023-03-23T14:02:28;18.50;99.90
23137;DHT22;11737;50.558;7.258;2023-03-23T14:04:56;18.40;99.90
23137;DHT22;11737;50.558;7.258;2023-03-23T14:07:24;18.30;99.90
23137;DHT22;11737;50.558;7.258;2023-03-23T14:09:51;18.40;99.90
23137;DHT22;11737;50.558;7.258;2023-03-23T14:12:22;18.50;99.90
23137;DHT22;11737;50.558;7.258;2023-03-23T14:14:55;18.70;99.90
23137;DHT22;11737;50.558;7.258;2023-03-23T14:17:25;18.80;99.90
23137;DHT22;11737;50.558;7.258;2023-03-23T14:19:56;18.90;99.90
23137;DHT22;11737;50.558;7.258;2023-03-23T14:22:26;19.00;99.90
23137;DHT22;11737;50.558;7.258;2023-03-23T14:25:07;19.00;99.90
23137;DHT22;11737;50.558;7.258;2023-03-23T14:27:51;19.10;99.90
23137;DHT22;11737;50.558;7.258;2023-03-23T14:30:22;19.20;99.90
23137;DHT22;11737;50.558;7.258;2023-03-23T14:32:53;19.30;99.90
23137;DHT22;11737;50.558;7.258;2023-03-23T14:35:26;19.40;99.90
23137;DHT22;11737;50.558;7.258;2023-03-23T14:37:53;19.50;99.90
23137;DHT22;11737;50.558;7.258;2023-03-23T14:40:22;19.50;99.90
23137;DHT22;11737;50.558;7.258;2023-03-23T14:42:51;19.60;99.90
23137;DHT22;11737;50.558;7.258;2023-03-23T14:45:22;19.60;99.90
23137;DHT22;11737;50.558;7.258;2023-03-23T14:47:53;19.50;99.90
23137;DHT22;11737;50.558;7.258;2023-03-23T14:50:27;19.50;99.90
23137;DHT22;11737;50.558;7.258;2023-03-23T14:53:01;19.40;99.90
23137;DHT22;11737;50.558;7.258;2023-03-23T14:55:30;19.30;99.90
23137;DHT22;11737;50.558;7.258;2023-03-23T14:58:08;19.20;99.90
23137;DHT22;11737;50.558;7.258;2023-03-23T15:03:31;19.00;99.90
23137;DHT22;11737;50.558;7.258;2023-03-23T15:06:00;19.10;99.90
23137;DHT22;11737;50.558;7.258;2023-03-23T15:08:31;19.30;99.90
23137;DHT22;11737;50.558;7.258;2023-03-23T15:13:47;19.50;99.90
23137;DHT22;11737;50.558;7.258;2023-03-23T15:16:31;19.70;99.90
23137;DHT22;11737;50.558;7.258;2023-03-23T15:19:06;19.80;99.90
23137;DHT22;11737;50.558;7.258;2023-03-23T15:21:38;20.00;99.90
23137;DHT22;11737;50.558;7.258;2023-03-23T15:24:18;20.10;99.70
23137;DHT22;11737;50.558;7.258;2023-03-23T15:26:44;20.10;99.90
23137;DHT22;11737;50.558;7.258;2023-03-23T15:29:11;20.30;99.90
23137;DHT22;11737;50.558;7.258;2023-03-23T15:31:47;20.60;99.90
23137;DHT22;11737;50.558;7.258;2023-03-23T15:34:23;20.60;99.80
23137;DHT22;11737;50.558;7.258;2023-03-23T15:37:01;20.50;99.30
23137;DHT22;11737;50.558;7.258;2023-03-23T15:39:26;20.30;99.10
23137;DHT22;11737;50.558;7.258;2023-03-23T15:41:55;20.30;99.90
23137;DHT22;11737;50.558;7.258;2023-03-23T15:44:29;20.40;99.90
23137;DHT22;11737;50.558;7.258;2023-03-23T15:47:17;20.40;99.90
23137;DHT22;11737;50.558;7.258;2023-03-23T15:49:47;20.50;99.80
23137;DHT22;11737;50.558;7.258;2023-03-23T15:52:16;20.40;99.60
23137;DHT22;11737;50.558;7.258;2023-03-23T15:54:47;20.30;99.30
23137;DHT22;11737;50.558;7.258;2023-03-23T15:57:15;20.20;99.30
23137;DHT22;11737;50.558;7.258;2023-03-23T15:59:43;20.00;99.10
23137;DHT22;11737;50.558;7.258;2023-03-23T16:05:02;19.60;99.70
23137;DHT22;11737;50.558;7.258;2023-03-23T16:07:30;19.50;99.60
23137;DHT22;11737;50.558;7.258;2023-03-23T16:09:57;19.50;98.60
23137;DHT22;11737;50.558;7.258;2023-03-23T16:12:25;19.50;98.90
23137;DHT22;11737;50.558;7.258;2023-03-23T16:14:52;19.50;98.90
23137;DHT22;11737;50.558;7.258;2023-03-23T16:17:20;19.40;99.00
23137;DHT22;11737;50.558;7.258;2023-03-23T16:19:47;19.40;99.00
23137;DHT22;11737;50.558;7.258;2023-03-23T16:22:16;19.50;99.20
23137;DHT22;11737;50.558;7.258;2023-03-23T16:24:43;19.70;99.20
23137;DHT22;11737;50.558;7.258;2023-03-23T16:27:11;19.90;99.00
23137;DHT22;11737;50.558;7.258;2023-03-23T16:29:39;19.90;98.60
23137;DHT22;11737;50.558;7.258;2023-03-23T16:32:07;19.90;97.60
23137;DHT22;11737;50.558;7.258;2023-03-23T16:34:34;19.80;98.30
23137;DHT22;11737;50.558;7.258;2023-03-23T16:37:02;19.70;98.20
23137;DHT22;11737;50.558;7.258;2023-03-23T16:39:29;19.70;98.50
23137;DHT22;11737;50.558;7.258;2023-03-23T16:41:57;19.50;98.40
23137;DHT22;11737;50.558;7.258;2023-03-23T16:44:24;19.40;98.20
23137;DHT22;11737;50.558;7.258;2023-03-23T16:46:52;19.20;98.50
23137;DHT22;11737;50.558;7.258;2023-03-23T16:49:19;19.10;98.60
23137;DHT22;11737;50.558;7.258;2023-03-23T16:51:47;19.00;98.60
23137;DHT22;11737;50.558;7.258;2023-03-23T16:54:14;19.00;99.00
23137;DHT22;11737;50.558;7.258;2023-03-23T16:57:01;18.90;99.20
23137;DHT22;11737;50.558;7.258;2023-03-23T16:59:29;18.90;98.80
23137;DHT22;11737;50.558;7.258;2023-03-23T17:01:56;18.70;98.90
23137;DHT22;11737;50.558;7.258;2023-03-23T17:04:25;18.60;99.10
23137;DHT22;11737;50.558;7.258;2023-03-23T17:06:53;18.50;99.00
23137;DHT22;11737;50.558;7.258;2023-03-23T17:09:20;18.30;99.10
23137;DHT22;11737;50.558;7.258;2023-03-23T17:11:48;18.20;99.40
23137;DHT22;11737;50.558;7.258;2023-03-23T17:14:16;18.10;99.60
23137;DHT22;11737;50.558;7.258;2023-03-23T17:16:43;17.90;99.40
23137;DHT22;11737;50.558;7.258;2023-03-23T17:19:11;17.80;99.70
23137;DHT22;11737;50.558;7.258;2023-03-23T17:21:40;17.70;99.90
23137;DHT22;11737;50.558;7.258;2023-03-23T17:24:08;17.60;99.90
23137;DHT22;11737;50.558;7.258;2023-03-23T17:26:36;17.50;99.90
23137;DHT22;11737;50.558;7.258;2023-03-23T17:29:03;17.40;99.90
23137;DHT22;11737;50.558;7.258;2023-03-23T17:31:31;17.30;99.90
23137;DHT22;11737;50.558;7.258;2023-03-23T17:33:59;17.30;99.90